Time;durP1;ratioP1;P1;durP2;ratioP2;P2;SDS_P1;SDS_P2;PMS_P1;PMS_P2;Temp;Humidity;BMP_temperature;BMP_pressure;BME280_temperature;BME280_humidity;BME280_pressure;Samples;Min_cycle;Max_cycle;Signal;HPM_P1;HPM_P2
2022/03/13 11:03:46;;;;;;;25.17;17.73;;;;;;;9.75;44.53;98715.16;4181378;27;20548;-65
2022/03/13 11:05:49;;;;;;;28.20;21.67;;;;;;;10.01;43.70;98704.09;4142613;28;20251;-65
2022/03/13 11:07:52;;;;;;;21.00;15.33;;;;;;;10.18;43.24;98700.31;4143820;28;20237;-66
2022/03/13 11:09:54;;;;;;;22.20;15.60;;;;;;;10.55;42.78;98687.94;4151378;28;20271;-66
2022/03/13 11:12:17;;;;;;;19.53;14.77;;;;;;;10.58;42.61;98692.88;4150140;28;20329;-66
2022/03/13 11:14:18;;;;;;;23.63;16.80;;;;;;;10.58;42.52;98703.50;4154211;28;20257;-66
2022/03/13 11:16:26;;;;;;;25.00;15.27;;;;;;;10.74;42.69;98699.00;4128675;28;20237;-65
2022/03/13 11:18:35;;;;;;;25.63;15.90;;;;;;;10.98;42.23;98688.03;4132526;28;20968;-65
2022/03/13 11:20:39;;;;;;;18.90;14.77;;;;;;;10.91;41.72;98695.13;4135020;28;20236;-66
2022/03/13 11:22:41;;;;;;;22.03;16.20;;;;;;;10.86;42.04;98702.84;4132310;28;20249;-66
2022/03/13 11:24:44;;;;;;;22.67;15.80;;;;;;;11.02;42.15;98683.19;4138041;28;20264;-66
2022/03/13 11:26:46;;;;;;;21.57;13.93;;;;;;;11.22;41.53;98677.25;4134571;28;20226;-67
2022/03/13 11:28:49;;;;;;;21.77;14.87;;;;;;;10.96;41.98;98690.06;4120812;28;20264;-66
2022/03/13 11:30:51;;;;;;;22.17;14.97;;;;;;;10.81;41.71;98699.94;4138930;28;20521;-66
2022/03/13 11:32:54;;;;;;;20.83;15.10;;;;;;;11.06;41.74;98673.81;4138463;28;20264;-65
2022/03/13 11:35:11;;;;;;;18.63;14.33;;;;;;;11.04;41.85;98688.31;4136270;28;20234;-65
2022/03/13 11:37:30;;;;;;;20.40;14.47;;;;;;;11.44;42.08;98667.41;4136857;28;20722;-66
2022/03/13 11:39:31;;;;;;;21.73;15.57;;;;;;;11.26;41.52;98679.34;4142210;28;20763;-66
2022/03/13 11:41:39;;;;;;;20.43;14.73;;;;;;;11.28;41.52;98676.50;4138493;28;20245;-66
2022/03/13 11:43:44;;;;;;;20.30;14.93;;;;;;;11.43;41.26;98669.28;4130252;28;20272;-66
2022/03/13 11:45:54;;;;;;;18.23;13.83;;;;;;;11.57;41.62;98664.88;4141169;28;20584;-66
2022/03/13 11:47:57;;;;;;;21.93;13.90;;;;;;;11.30;41.28;98679.78;4140609;28;20245;-65
2022/03/13 11:49:59;;;;;;;19.07;14.03;;;;;;;11.27;41.44;98672.19;4138484;28;20261;-65
2022/03/13 11:52:10;;;;;;;19.40;13.07;;;;;;;11.40;41.04;98652.88;4135378;28;20258;-65
2022/03/13 11:54:15;;;;;;;19.77;14.37;;;;;;;11.80;40.28;98645.19;4135756;28;20232;-64
2022/03/13 11:56:26;;;;;;;18.50;13.83;;;;;;;11.30;40.92;98664.63;4136183;28;20261;-66
2022/03/13 11:58:38;;;;;;;21.47;14.17;;;;;;;11.47;40.60;98653.75;4137004;28;20675;-65
2022/03/13 12:00:42;;;;;;;17.93;13.13;;;;;;;10.91;41.25;98687.16;4138992;28;20237;-65
2022/03/13 12:02:46;;;;;;;22.47;14.37;;;;;;;10.95;41.36;98676.97;4137101;28;20233;-65
2022/03/13 12:05:24;;;;;;;20.57;13.87;;;;;;;11.51;40.37;98650.50;4135860;28;20660;-65
2022/03/13 12:07:27;;;;;;;19.57;13.40;;;;;;;11.45;40.53;98655.78;4136304;28;20283;-66
2022/03/13 12:09:45;;;;;;;18.03;13.47;;;;;;;11.76;40.59;98630.63;4136849;28;20593;-66
2022/03/13 12:11:52;;;;;;;17.90;13.30;;;;;;;11.45;40.56;98645.13;4142782;28;20312;-66
2022/03/13 12:13:55;;;;;;;19.33;13.67;;;;;;;11.92;40.08;98620.50;4133156;28;20234;-66
2022/03/13 12:16:10;;;;;;;18.50;13.90;;;;;;;12.06;40.06;98613.41;4126519;28;20248;-66
2022/03/13 12:18:32;;;;;;;19.90;14.73;;;;;;;12.01;40.05;98617.69;4123990;28;20245;-67
2022/03/13 12:20:34;;;;;;;20.07;14.40;;;;;;;12.38;39.84;98608.44;4128397;28;20240;-66
2022/03/13 12:22:36;;;;;;;18.83;14.97;;;;;;;12.34;40.32;98603.72;4125404;28;20225;-66
2022/03/13 12:24:38;;;;;;;22.07;14.10;;;;;;;12.32;40.55;98600.41;4124269;28;20237;-66
2022/03/13 12:26:41;;;;;;;19.33;13.03;;;;;;;12.29;40.47;98602.47;4126889;28;20257;-64
2022/03/13 12:28:44;;;;;;;21.20;13.93;;;;;;;12.31;39.98;98602.28;4126694;28;20691;-66
2022/03/13 12:30:46;;;;;;;20.00;14.60;;;;;;;12.88;39.42;98580.75;4126889;28;20238;-67
2022/03/13 12:32:55;;;;;;;19.83;14.60;;;;;;;12.70;39.64;98581.28;4126592;28;20218;-65
2022/03/13 12:35:18;;;;;;;19.07;14.00;;;;;;;12.28;39.71;98606.16;4123272;28;20262;-67
2022/03/13 12:37:20;;;;;;;18.13;14.33;;;;;;;12.34;40.20;98612.53;4124782;28;20237;-67
2022/03/13 12:39:22;;;;;;;19.97;13.83;;;;;;;12.39;39.96;98603.97;4125981;28;20244;-67
2022/03/13 12:41:25;;;;;;;21.97;14.27;;;;;;;12.43;39.92;98600.66;4125967;28;20260;-67
2022/03/13 12:43:56;;;;;;;18.60;14.43;;;;;;;12.54;39.85;98593.13;4128985;28;20230;-66
2022/03/13 12:45:59;;;;;;;21.03;13.97;;;;;;;12.72;39.66;98587.22;4129048;28;20554;-67
2022/03/13 12:48:03;;;;;;;22.80;14.67;;;;;;;12.78;39.66;98570.44;4124751;28;20240;-67
2022/03/13 12:50:09;;;;;;;21.53;15.20;;;;;;;12.87;39.62;98563.09;4123494;28;20242;-67
2022/03/13 12:52:14;;;;;;;24.40;14.53;;;;;;;12.89;39.72;98569.03;4127691;28;20288;-67
2022/03/13 12:54:21;;;;;;;22.40;14.83;;;;;;;12.97;39.44;98568.84;4126293;28;20254;-67
2022/03/13 12:56:30;;;;;;;19.93;13.83;;;;;;;13.16;39.89;98556.53;4128216;28;20228;-70
2022/03/13 12:58:43;;;;;;;24.03;15.70;;;;;;;13.25;39.56;98558.00;4134255;28;20229;-65
2022/03/13 13:00:44;;;;;;;22.63;14.70;;;;;;;13.10;39.41;98563.53;4124423;28;20242;-65
2022/03/13 13:03:06;;;;;;;20.43;14.40;;;;;;;13.35;39.69;98555.72;4121812;28;20703;-67
2022/03/13 13:05:12;;;;;;;22.23;14.40;;;;;;;13.35;39.55;98534.38;4123306;28;20230;-66
2022/03/13 13:07:17;;;;;;;20.23;14.53;;;;;;;13.30;40.46;98552.84;4136777;28;20252;-65
2022/03/13 13:09:29;;;;;;;19.57;14.77;;;;;;;13.70;39.86;98541.28;4138682;28;20513;-65
2022/03/13 13:11:37;;;;;;;32.70;21.17;;;;;;;13.67;40.95;98539.03;4140402;28;20225;-68
2022/03/13 13:13:39;;;;;;;21.80;16.37;;;;;;;13.83;40.19;98524.44;4129690;28;20637;-66
2022/03/13 13:15:41;;;;;;;26.40;16.53;;;;;;;13.91;39.76;98533.03;4129846;28;20229;-66
2022/03/13 13:17:45;;;;;;;26.00;17.30;;;;;;;13.69;41.10;98537.81;4140341;28;20237;-66
2022/03/13 13:19:50;;;;;;;31.73;23.47;;;;;;;14.09;40.00;98523.50;4139691;28;22122;-67
2022/03/13 13:22:00;;;;;;;45.53;32.67;;;;;;;14.31;39.74;98516.84;4139516;28;20241;-66
2022/03/13 13:24:23;;;;;;;25.73;18.27;;;;;;;14.28;39.58;98519.13;4134869;28;20624;-66
2022/03/13 13:26:42;;;;;;;26.60;17.07;;;;;;;14.23;40.40;98522.44;4136638;28;20766;-66
2022/03/13 13:29:01;;;;;;;25.33;18.90;;;;;;;14.35;39.58;98505.72;4136870;28;20453;-66
2022/03/13 13:31:04;;;;;;;24.30;17.97;;;;;;;14.28;39.67;98522.63;4140959;28;20689;-66
2022/03/13 13:33:11;;;;;;;22.90;17.03;;;;;;;14.51;39.12;98499.84;4135130;28;20261;-66
2022/03/13 13:35:15;;;;;;;49.33;38.17;;;;;;;14.59;39.75;98496.13;4130222;28;20242;-66
2022/03/13 13:37:17;;;;;;;406.47;205.90;;;;;;;14.24;39.19;98505.38;4139072;28;20280;-66
2022/03/13 13:39:22;;;;;;;67.90;37.73;;;;;;;14.60;38.95;98493.22;4141136;28;20518;-66
2022/03/13 13:41:25;;;;;;;275.17;142.63;;;;;;;14.62;39.21;98506.38;4139725;28;20879;-66
2022/03/13 13:43:41;;;;;;;39.03;28.47;;;;;;;14.65;39.05;98495.25;4138432;28;20265;-66
2022/03/13 13:45:46;;;;;;;24.13;18.33;;;;;;;14.89;38.78;98486.44;4133789;28;20236;-66
2022/03/13 13:47:49;;;;;;;29.87;21.47;;;;;;;14.60;38.99;98492.41;4138814;28;20248;-66
2022/03/13 13:49:51;;;;;;;25.67;18.47;;;;;;;14.83;38.05;98497.19;4142323;28;20241;-66
2022/03/13 13:51:52;;;;;;;26.23;17.30;;;;;;;14.65;38.53;98497.94;4143216;28;20237;-66
2022/03/13 13:54:05;;;;;;;28.37;17.37;;;;;;;14.63;38.89;98500.81;4143356;28;20249;-66
2022/03/13 13:56:10;;;;;;;25.33;17.10;;;;;;;14.99;38.23;98479.78;4131128;28;20242;-66
2022/03/13 13:58:23;;;;;;;29.47;18.70;;;;;;;14.65;38.29;98505.97;4132045;28;20287;-66
2022/03/13 14:00:28;;;;;;;23.60;17.27;;;;;;;14.81;38.42;98484.03;4132194;28;20623;-66
2022/03/13 14:02:30;;;;;;;23.10;17.03;;;;;;;14.55;38.36;98514.44;4137507;28;20257;-66
2022/03/13 14:04:39;;;;;;;23.90;17.97;;;;;;;14.92;38.05;98495.06;4132809;28;20558;-66
2022/03/13 14:06:43;;;;;;;25.83;17.83;;;;;;;14.72;38.40;98495.22;4125285;28;20229;-66
2022/03/13 14:08:47;;;;;;;24.90;17.00;;;;;;;14.93;38.57;98507.44;4138589;28;20264;-66
2022/03/13 14:10:48;;;;;;;28.90;17.47;;;;;;;14.76;38.70;98521.31;4133192;28;20229;-66
2022/03/13 14:12:50;;;;;;;32.60;25.53;;;;;;;15.37;38.32;98495.72;4139868;28;20238;-66
2022/03/13 14:14:51;;;;;;;22.73;17.03;;;;;;;15.31;38.14;98483.22;4139097;28;20250;-66
2022/03/13 14:16:53;;;;;;;25.70;16.47;;;;;;;14.98;38.59;98502.25;4137606;28;20244;-66
2022/03/13 14:18:56;;;;;;;21.90;16.53;;;;;;;15.11;38.03;98499.44;4142330;28;20316;-66
2022/03/13 14:20:58;;;;;;;23.17;17.40;;;;;;;15.36;37.76;98487.91;4138447;28;20238;-66
2022/03/13 14:23:00;;;;;;;23.87;17.87;;;;;;;15.04;38.33;98494.16;4135526;28;20284;-66
2022/03/13 14:25:01;;;;;;;26.70;18.40;;;;;;;15.32;37.54;98490.22;4130183;28;20262;-66
2022/03/13 14:27:03;;;;;;;26.10;18.93;;;;;;;15.04;37.63;98504.84;4138134;28;20276;-66
2022/03/13 14:29:05;;;;;;;27.43;20.17;;;;;;;15.30;37.39;98491.47;4141817;28;20655;-66
2022/03/13 14:31:08;;;;;;;60.37;42.53;;;;;;;15.21;37.91;98501.63;4138635;28;20234;-66
2022/03/13 14:33:10;;;;;;;26.93;19.03;;;;;;;15.30;37.86;98489.59;4134398;28;20221;-66
2022/03/13 14:35:13;;;;;;;37.90;26.37;;;;;;;15.34;37.76;98482.78;4129113;28;20262;-66
2022/03/13 14:37:15;;;;;;;32.17;23.40;;;;;;;15.34;38.52;98471.22;4137807;28;20616;-66
2022/03/13 14:39:36;;;;;;;105.17;83.57;;;;;;;15.65;37.82;98467.63;4142427;28;20706;-66
2022/03/13 14:41:39;;;;;;;29.50;20.73;;;;;;;15.52;38.18;98484.63;4138053;28;20260;-66
2022/03/13 14:43:41;;;;;;;22.40;16.70;;;;;;;15.89;38.00;98447.13;4136863;28;20595;-66
2022/03/13 14:45:42;;;;;;;25.17;17.47;;;;;;;15.69;37.67;98458.09;4136623;28;20229;-66
2022/03/13 14:47:44;;;;;;;22.10;16.33;;;;;;;15.77;37.58;98460.47;4140395;28;20748;-66
2022/03/13 14:50:06;;;;;;;24.30;17.00;;;;;;;15.61;38.10;98488.66;4142452;28;20355;-66
2022/03/13 14:52:08;;;;;;;21.87;16.37;;;;;;;15.58;37.13;98478.41;4157477;28;20318;-66
2022/03/13 14:54:13;;;;;;;25.67;16.60;;;;;;;15.37;37.57;98497.56;4159036;28;20584;-66
2022/03/13 14:56:14;;;;;;;24.50;17.00;;;;;;;15.45;37.18;98478.53;4153962;28;20328;-66
2022/03/13 14:58:16;;;;;;;29.77;17.90;;;;;;;15.29;37.79;98487.13;4156705;28;20287;-66
2022/03/13 15:00:18;;;;;;;24.17;17.00;;;;;;;15.37;37.52;98495.72;4159138;28;20316;-67
2022/03/13 15:02:20;;;;;;;20.87;16.37;;;;;;;15.29;38.27;98506.72;4154454;28;20245;-66
2022/03/13 15:04:22;;;;;;;26.43;17.10;;;;;;;15.64;37.32;98479.38;4155838;28;20267;-66
2022/03/13 15:06:24;;;;;;;25.17;17.30;;;;;;;15.60;37.10;98475.50;4144013;28;20228;-66
2022/03/13 15:08:33;;;;;;;19.10;15.37;;;;;;;15.61;38.33;98477.16;4156651;28;20327;-66
2022/03/13 15:10:35;;;;;;;23.33;16.67;;;;;;;15.87;37.84;98461.81;4158060;28;20598;-66
2022/03/13 15:12:37;;;;;;;22.37;17.10;;;;;;;15.65;37.63;98473.00;4156691;28;20260;-66
2022/03/13 15:14:41;;;;;;;22.33;16.57;;;;;;;15.73;37.77;98470.00;4157838;28;20614;-67
2022/03/13 15:16:42;;;;;;;25.97;17.33;;;;;;;15.56;37.26;98468.97;4154920;28;20233;-67
2022/03/13 15:18:44;;;;;;;20.97;15.67;;;;;;;15.56;37.78;98477.81;4159017;28;20710;-66
2022/03/13 15:20:46;;;;;;;20.70;15.10;;;;;;;15.64;37.86;98482.06;4156950;28;20233;-67
2022/03/13 15:22:48;;;;;;;25.03;17.57;;;;;;;15.43;38.43;98472.59;4155374;28;20252;-66
2022/03/13 15:24:50;;;;;;;23.50;17.83;;;;;;;15.70;37.75;98465.09;4152651;28;20270;-66
2022/03/13 15:26:52;;;;;;;38.43;34.53;;;;;;;15.61;37.02;98461.06;4154821;28;20762;-66
2022/03/13 15:28:54;;;;;;;75.23;67.30;;;;;;;15.10;37.65;98507.69;4157833;28;20232;-66
2022/03/13 15:30:56;;;;;;;31.90;23.07;;;;;;;15.33;37.98;98501.75;4153109;28;20656;-66
2022/03/13 15:32:59;;;;;;;38.77;27.20;;;;;;;15.19;38.57;98507.22;4155228;28;20238;-66
2022/03/13 15:35:01;;;;;;;48.43;31.17;;;;;;;15.26;38.21;98512.50;4143184;28;20238;-66
2022/03/13 15:37:04;;;;;;;79.33;48.80;;;;;;;15.99;37.08;98450.09;4145743;28;20247;-67
2022/03/13 15:39:05;;;;;;;50.43;29.97;;;;;;;15.33;37.85;98509.78;4157971;28;20236;-66
2022/03/13 15:41:07;;;;;;;24.10;16.30;;;;;;;15.78;36.48;98472.03;4153872;28;20245;-66
2022/03/13 15:43:10;;;;;;;28.80;17.73;;;;;;;15.72;37.05;98478.28;4151490;28;20244;-66
2022/03/13 15:45:13;;;;;;;25.13;17.00;;;;;;;15.74;37.11;98468.16;4145978;28;20221;-66
2022/03/13 15:47:15;;;;;;;22.87;16.17;;;;;;;15.49;37.39;98493.13;4156070;28;20299;-66
2022/03/13 15:49:17;;;;;;;22.93;16.73;;;;;;;15.19;37.53;98501.03;4157817;28;20334;-66
2022/03/13 15:51:20;;;;;;;20.90;15.87;;;;;;;15.55;37.11;98488.75;4156338;28;20454;-68
2022/03/13 15:53:22;;;;;;;23.20;16.23;;;;;;;14.99;37.79;98518.09;4155174;28;20232;-66
2022/03/13 15:55:32;;;;;;;24.57;16.43;;;;;;;14.92;37.83;98528.03;4151996;28;20605;-66
2022/03/13 15:57:34;;;;;;;23.47;16.40;;;;;;;15.15;37.78;98505.19;4156195;28;20266;-66
2022/03/13 15:59:36;;;;;;;21.23;16.07;;;;;;;15.39;37.06;98496.31;4148593;28;20764;-66
2022/03/13 16:01:37;;;;;;;23.80;15.93;;;;;;;15.35;37.53;98496.97;4154203;28;20225;-66
2022/03/13 16:03:40;;;;;;;21.97;15.10;;;;;;;15.71;36.88;98466.75;4158148;28;20236;-66
2022/03/13 16:05:41;;;;;;;23.83;16.20;;;;;;;15.73;36.25;98453.94;4144098;28;20229;-66
2022/03/13 16:07:44;;;;;;;20.40;15.87;;;;;;;15.63;36.86;98475.91;4140478;28;20490;-66
2022/03/13 16:09:49;;;;;;;21.63;16.50;;;;;;;15.71;36.70;98472.09;4143152;28;20224;-66
2022/03/13 16:11:51;;;;;;;21.90;16.40;;;;;;;15.62;37.19;98468.91;4141287;28;20237;-66
2022/03/13 16:13:55;;;;;;;21.97;14.97;;;;;;;15.51;37.00;98488.38;4143072;28;20237;-66
2022/03/13 16:15:59;;;;;;;20.70;15.67;;;;;;;15.28;37.03;98494.34;4141973;28;20241;-66
2022/03/13 16:18:03;;;;;;;24.43;15.90;;;;;;;15.34;37.22;98495.31;4143726;28;20313;-67
2022/03/13 16:20:07;;;;;;;27.20;19.00;;;;;;;15.23;37.18;98507.59;4143460;28;20674;-67
2022/03/13 16:22:09;;;;;;;21.40;16.47;;;;;;;14.84;37.68;98530.97;4141588;28;20256;-66
2022/03/13 16:24:11;;;;;;;27.17;18.70;;;;;;;14.84;37.13;98525.63;4139397;28;20796;-67
2022/03/13 16:26:14;;;;;;;24.97;18.57;;;;;;;14.67;37.33;98539.47;4139628;28;20237;-66
2022/03/13 16:28:16;;;;;;;33.20;21.97;;;;;;;15.00;37.68;98521.56;4145256;28;20229;-67
2022/03/13 16:30:21;;;;;;;49.87;30.17;;;;;;;15.06;37.27;98505.44;4144700;28;20241;-66
2022/03/13 16:32:23;;;;;;;30.30;20.97;;;;;;;14.90;37.42;98527.44;4141420;28;20225;-67
2022/03/13 16:34:25;;;;;;;49.57;33.00;;;;;;;15.02;37.49;98516.84;4141433;28;20305;-67
2022/03/13 16:36:27;;;;;;;36.10;26.17;;;;;;;15.10;36.91;98505.84;4132654;28;20669;-66
2022/03/13 16:38:29;;;;;;;52.30;30.00;;;;;;;14.91;37.13;98515.66;4144825;28;20623;-66
2022/03/13 16:40:31;;;;;;;44.60;30.63;;;;;;;15.02;37.08;98511.50;4144704;28;20240;-67
2022/03/13 16:42:34;;;;;;;35.00;27.73;;;;;;;15.05;36.86;98506.50;4141817;28;20271;-67
2022/03/13 16:44:35;;;;;;;20.50;16.90;;;;;;;14.47;38.03;98538.78;4135567;28;20233;-67
2022/03/13 16:46:37;;;;;;;23.67;14.23;;;;;;;14.66;37.67;98520.97;4138314;28;20260;-67
2022/03/13 16:48:39;;;;;;;20.17;14.30;;;;;;;14.81;37.22;98497.41;4143906;28;20237;-67
2022/03/13 16:50:41;;;;;;;19.13;13.97;;;;;;;14.83;37.20;98497.19;4142777;28;20928;-67
2022/03/13 16:52:47;;;;;;;20.90;14.83;;;;;;;14.65;37.29;98530.84;4141083;28;20233;-67
2022/03/13 16:54:49;;;;;;;19.40;14.17;;;;;;;14.34;37.69;98542.31;4143449;28;20273;-67
2022/03/13 16:56:54;;;;;;;21.03;14.93;;;;;;;14.61;37.79;98537.66;4136762;28;20668;-67
2022/03/13 16:58:56;;;;;;;22.60;15.07;;;;;;;15.30;36.62;98470.03;4143354;28;20237;-67
2022/03/13 17:00:58;;;;;;;22.97;15.07;;;;;;;14.39;38.05;98550.53;4140773;28;20237;-66
2022/03/13 17:03:01;;;;;;;19.90;14.57;;;;;;;14.70;37.78;98523.00;4133690;28;20710;-66
2022/03/13 17:05:06;;;;;;;22.00;14.57;;;;;;;14.46;37.35;98550.50;4132656;28;20233;-66
2022/03/13 17:07:08;;;;;;;19.70;13.53;;;;;;;14.65;37.42;98530.03;4136297;28;20272;-67
2022/03/13 17:09:11;;;;;;;18.57;14.03;;;;;;;14.24;37.97;98544.63;4143889;28;20324;-67
2022/03/13 17:11:13;;;;;;;22.43;15.33;;;;;;;14.55;37.14;98519.81;4137595;28;20712;-66
2022/03/13 17:13:14;;;;;;;20.00;14.73;;;;;;;14.68;37.63;98508.19;4143665;28;20241;-67
2022/03/13 17:15:16;;;;;;;20.83;15.17;;;;;;;14.82;37.07;98498.25;4143356;28;20241;-67
2022/03/13 17:17:18;;;;;;;23.73;16.83;;;;;;;14.48;37.51;98521.69;4139611;28;20252;-67
2022/03/13 17:19:20;;;;;;;19.77;14.00;;;;;;;14.54;37.30;98523.50;4143315;28;20397;-66
2022/03/13 17:21:22;;;;;;;19.53;14.07;;;;;;;13.78;38.31;98583.81;4133263;28;20637;-67
2022/03/13 17:23:24;;;;;;;19.97;13.17;;;;;;;13.70;38.44;98559.97;4142267;28;20287;-66
2022/03/13 17:25:27;;;;;;;19.67;14.27;;;;;;;14.33;37.32;98538.84;4139107;28;20260;-66
2022/03/13 17:27:29;;;;;;;22.47;14.50;;;;;;;14.04;37.71;98550.06;4130731;28;20276;-67
2022/03/13 17:29:31;;;;;;;19.17;14.00;;;;;;;14.43;37.23;98516.19;4138276;28;20763;-67
2022/03/13 17:31:34;;;;;;;20.73;13.97;;;;;;;14.64;36.75;98510.47;4134318;28;20646;-67
2022/03/13 17:33:35;;;;;;;20.70;14.57;;;;;;;14.11;37.76;98550.88;4131232;28;20234;-67
2022/03/13 17:35:37;;;;;;;21.87;13.67;;;;;;;13.67;38.15;98577.25;4127854;28;20236;-67
2022/03/13 17:37:39;;;;;;;18.17;13.47;;;;;;;14.29;37.29;98545.66;4131277;28;20242;-67
2022/03/13 17:39:42;;;;;;;22.80;14.50;;;;;;;13.99;37.84;98574.75;4140708;28;20336;-67
2022/03/13 17:41:46;;;;;;;21.40;15.07;;;;;;;13.89;38.32;98569.84;4137588;28;20264;-67
2022/03/13 17:43:47;;;;;;;21.90;16.00;;;;;;;13.05;39.33;98608.69;4135594;28;20283;-66
2022/03/13 17:45:49;;;;;;;17.03;12.70;;;;;;;13.67;38.39;98563.06;4136381;28;20237;-66
2022/03/13 17:47:52;;;;;;;35.33;22.63;;;;;;;13.95;37.99;98565.50;4141137;28;20229;-66
2022/03/13 17:49:54;;;;;;;25.67;16.33;;;;;;;13.96;37.82;98567.97;4142021;28;20670;-67
2022/03/13 17:51:55;;;;;;;18.70;13.33;;;;;;;14.19;37.61;98539.94;4134427;28;20625;-67
2022/03/13 17:53:57;;;;;;;28.00;16.40;;;;;;;13.84;38.33;98577.66;4142862;28;20258;-66
2022/03/13 17:55:59;;;;;;;28.43;18.43;;;;;;;13.98;37.76;98566.94;4136405;28;20233;-67
2022/03/13 17:58:01;;;;;;;23.30;16.37;;;;;;;13.98;37.71;98573.09;4144018;28;20237;-67
2022/03/13 18:00:04;;;;;;;33.73;21.07;;;;;;;14.00;38.19;98565.69;4133758;28;20252;-68
2022/03/13 18:02:06;;;;;;;54.53;32.07;;;;;;;13.65;38.52;98583.81;4140870;28;20291;-67
2022/03/13 18:04:08;;;;;;;105.27;55.20;;;;;;;14.24;37.37;98550.81;4128056;28;20246;-66
2022/03/13 18:06:10;;;;;;;32.07;23.67;;;;;;;14.23;37.30;98553.72;4126419;28;20272;-67
2022/03/13 18:08:12;;;;;;;22.90;16.90;;;;;;;14.20;37.53;98557.59;4137498;28;20257;-66
2022/03/13 18:10:14;;;;;;;22.03;14.90;;;;;;;14.39;37.09;98539.81;4141594;28;20249;-67
2022/03/13 18:12:16;;;;;;;20.13;14.17;;;;;;;14.38;37.05;98550.72;4137607;28;20799;-66
2022/03/13 18:14:18;;;;;;;18.83;12.40;;;;;;;14.26;36.95;98555.94;4130105;28;20234;-67
2022/03/13 18:16:19;;;;;;;19.40;12.67;;;;;;;14.44;37.20;98548.03;4133029;28;20265;-66
2022/03/13 18:18:21;;;;;;;20.33;12.17;;;;;;;14.54;37.00;98549.44;4130861;28;20471;-67
2022/03/13 18:20:23;;;;;;;17.93;12.00;;;;;;;14.02;37.41;98594.88;4136781;28;20241;-67
2022/03/13 18:22:25;;;;;;;19.17;13.47;;;;;;;14.37;36.85;98563.28;4138026;28;20229;-66
2022/03/13 18:24:27;;;;;;;17.90;12.80;;;;;;;14.53;36.65;98545.94;4125036;28;20237;-67
2022/03/13 18:26:29;;;;;;;20.47;12.37;;;;;;;14.40;37.15;98572.75;4138521;28;20236;-67
2022/03/13 18:28:31;;;;;;;20.83;12.90;;;;;;;14.38;37.12;98569.44;4143070;28;20244;-66
2022/03/13 18:30:33;;;;;;;24.77;14.20;;;;;;;14.45;36.99;98565.72;4142801;28;20229;-66
2022/03/13 18:32:34;;;;;;;18.30;13.43;;;;;;;14.39;37.23;98571.91;4138213;28;20240;-67
2022/03/13 18:34:36;;;;;;;20.80;15.80;;;;;;;14.40;37.12;98578.91;4135003;28;20226;-66
2022/03/13 18:36:38;;;;;;;41.97;25.80;;;;;;;14.45;37.40;98564.91;4122055;28;20308;-67
2022/03/13 18:38:40;;;;;;;49.27;32.00;;;;;;;14.29;38.00;98585.75;4138994;28;20239;-67
2022/03/13 18:40:41;;;;;;;51.63;30.40;;;;;;;14.06;38.36;98602.28;4134801;28;20718;-67
2022/03/13 18:42:43;;;;;;;43.47;25.73;;;;;;;14.04;38.48;98595.50;4138588;28;20229;-67
2022/03/13 18:44:47;;;;;;;35.07;21.87;;;;;;;14.11;38.34;98597.13;4132572;28;20234;-67
2022/03/13 18:46:50;;;;;;;31.17;19.43;;;;;;;13.89;38.43;98609.13;4136676;28;20229;-67
2022/03/13 18:48:52;;;;;;;28.77;17.47;;;;;;;13.94;38.42;98598.63;4142302;28;20713;-67
2022/03/13 18:50:54;;;;;;;32.00;19.10;;;;;;;13.67;38.90;98619.16;4134986;28;20269;-67
2022/03/13 18:52:56;;;;;;;29.07;17.70;;;;;;;13.77;38.80;98614.25;4139306;28;20240;-67
2022/03/13 18:55:00;;;;;;;26.57;16.57;;;;;;;13.57;39.22;98627.59;4141580;28;20257;-67
2022/03/13 18:57:04;;;;;;;23.63;16.00;;;;;;;13.62;39.21;98629.63;4135876;28;20237;-66
2022/03/13 18:59:06;;;;;;;29.47;16.30;;;;;;;13.40;39.59;98636.03;4141703;28;20321;-66
2022/03/13 19:01:07;;;;;;;28.97;17.53;;;;;;;13.53;39.52;98627.19;4138818;28;20245;-66
2022/03/13 19:03:10;;;;;;;33.10;20.30;;;;;;;13.34;39.93;98636.84;4142134;28;20629;-66
2022/03/13 19:05:12;;;;;;;35.67;22.37;;;;;;;13.33;39.77;98643.22;4128417;28;20249;-66
2022/03/13 19:07:14;;;;;;;34.37;19.37;;;;;;;13.18;40.16;98650.56;4135763;28;20335;-67
2022/03/13 19:09:21;;;;;;;30.13;18.43;;;;;;;13.19;40.00;98644.22;4146708;28;20243;-67
2022/03/13 19:11:24;;;;;;;39.43;23.33;;;;;;;13.09;40.09;98647.25;4138700;28;20279;-66
2022/03/13 19:13:25;;;;;;;27.83;18.83;;;;;;;13.13;39.84;98645.84;4142708;28;20398;-66
2022/03/13 19:15:28;;;;;;;28.80;20.60;;;;;;;13.18;39.59;98637.22;4142464;28;20229;-66
2022/03/13 19:17:30;;;;;;;34.93;21.83;;;;;;;13.22;39.35;98641.13;4137764;28;20221;-66
2022/03/13 19:19:32;;;;;;;31.97;21.93;;;;;;;13.05;39.72;98650.56;4142147;28;20237;-67
2022/03/13 19:21:35;;;;;;;30.90;20.50;;;;;;;13.02;39.53;98646.44;4138793;28;20828;-66
2022/03/13 19:23:36;;;;;;;26.80;18.93;;;;;;;13.14;39.47;98641.31;4139032;28;20311;-66
2022/03/13 19:25:40;;;;;;;23.60;17.63;;;;;;;12.99;39.47;98652.16;4141738;28;20229;-66
2022/03/13 19:27:42;;;;;;;26.63;15.97;;;;;;;12.88;39.68;98658.13;4141714;28;20232;-67
2022/03/13 19:29:44;;;;;;;24.93;16.20;;;;;;;13.07;39.08;98646.66;4144179;28;20728;-67
2022/03/13 19:31:46;;;;;;;21.43;15.37;;;;;;;13.10;39.02;98648.91;4142000;28;20229;-66
2022/03/13 19:33:48;;;;;;;21.63;15.90;;;;;;;12.93;39.40;98650.31;4145219;28;20206;-66
2022/03/13 19:35:53;;;;;;;21.87;15.47;;;;;;;12.91;39.17;98647.00;4129244;28;20233;-67
2022/03/13 19:37:56;;;;;;;23.33;15.97;;;;;;;12.94;39.03;98662.63;4134970;28;20808;-66
2022/03/13 19:39:58;;;;;;;25.67;16.00;;;;;;;12.77;39.29;98656.81;4143236;28;20303;-66
2022/03/13 19:42:03;;;;;;;22.07;15.33;;;;;;;12.70;39.48;98658.63;4141494;28;20680;-67
2022/03/13 19:44:08;;;;;;;24.03;15.77;;;;;;;12.95;38.91;98667.75;4137443;28;20250;-66
2022/03/13 19:46:10;;;;;;;21.07;15.23;;;;;;;12.81;39.24;98666.06;4130403;28;20248;-66
2022/03/13 19:48:11;;;;;;;21.50;14.73;;;;;;;13.05;39.02;98671.91;4145512;28;20237;-66
2022/03/13 19:50:13;;;;;;;20.90;15.70;;;;;;;12.95;39.02;98674.97;4144397;28;20268;-67
2022/03/13 19:52:15;;;;;;;20.17;14.87;;;;;;;12.78;39.22;98693.94;4141589;28;20233;-67
2022/03/13 19:54:20;;;;;;;22.40;14.57;;;;;;;13.01;38.92;98677.66;4141563;28;20233;-66
2022/03/13 19:56:22;;;;;;;19.50;15.17;;;;;;;12.99;39.01;98684.19;4137585;28;20229;-66
2022/03/13 19:58:24;;;;;;;22.10;15.20;;;;;;;12.99;38.86;98690.38;4144775;28;20706;-67
2022/03/13 20:00:26;;;;;;;19.40;14.43;;;;;;;13.14;38.67;98684.03;4144755;28;20788;-66
2022/03/13 20:02:28;;;;;;;20.67;15.47;;;;;;;12.57;39.37;98707.38;4140960;28;20233;-67
2022/03/13 20:04:33;;;;;;;19.63;15.50;;;;;;;12.67;39.00;98699.84;4139059;28;20679;-66
2022/03/13 20:06:36;;;;;;;24.73;15.80;;;;;;;12.95;38.85;98688.28;4134131;28;20233;-66
2022/03/13 20:08:37;;;;;;;22.57;15.97;;;;;;;12.81;39.15;98696.22;4144379;28;20530;-66
2022/03/13 20:10:39;;;;;;;23.30;16.03;;;;;;;12.85;38.93;98700.13;4141793;28;20272;-68
2022/03/13 20:12:41;;;;;;;23.73;17.17;;;;;;;12.92;38.98;98700.19;4131850;28;20253;-66
2022/03/13 20:14:44;;;;;;;22.43;15.67;;;;;;;12.53;39.20;98712.28;4140361;28;20745;-66
2022/03/13 20:16:47;;;;;;;22.57;16.63;;;;;;;12.93;38.71;98690.34;4138471;28;20229;-66
2022/03/13 20:18:49;;;;;;;22.90;17.03;;;;;;;12.81;38.81;98693.56;4144905;28;20236;-66
2022/03/13 20:20:51;;;;;;;26.27;18.13;;;;;;;12.82;38.55;98707.72;4139886;28;20344;-66
2022/03/13 20:22:53;;;;;;;27.10;20.17;;;;;;;12.84;38.56;98702.97;4143378;28;20233;-66
2022/03/13 20:24:55;;;;;;;28.30;21.13;;;;;;;12.58;38.99;98715.19;4137513;28;20241;-66
2022/03/13 20:26:58;;;;;;;30.23;21.63;;;;;;;12.69;39.20;98707.66;4139695;28;20241;-67
2022/03/13 20:29:00;;;;;;;29.07;21.47;;;;;;;12.64;39.07;98710.91;4139019;28;20252;-66
2022/03/13 20:31:02;;;;;;;30.90;20.13;;;;;;;12.69;38.96;98711.16;4124931;28;20237;-66
2022/03/13 20:33:05;;;;;;;29.00;20.80;;;;;;;12.60;38.97;98715.81;4143699;28;20226;-66